Time;durP1;ratioP1;P1;durP2;ratioP2;P2;SDS_P1;SDS_P2;PMS_P1;PMS_P2;Temp;Humidity;BMP_temperature;BMP_pressure;BME280_temperature;BME280_humidity;BME280_pressure;Samples;Min_cycle;Max_cycle;Signal;HPM_P1;HPM_P2
2023/01/16 00:02:42;;;;;;;3.38;0.90;;;;;;;5.78;97.43;98402.13;12178827;19;20003;-84
2023/01/16 00:06:44;;;;;;;4.22;1.10;;;;;;;5.81;97.80;98407.09;12198585;19;20108;-83
2023/01/16 00:10:46;;;;;;;5.25;0.90;;;;;;;5.83;96.60;98404.09;12196569;19;20017;-82
2023/01/16 00:14:47;;;;;;;4.28;0.70;;;;;;;5.86;97.28;98396.22;12175304;19;20042;-82
2023/01/16 00:18:49;;;;;;;4.72;1.85;;;;;;;5.85;96.83;98388.25;12199927;19;20014;-83
2023/01/16 00:22:51;;;;;;;5.50;1.13;;;;;;;5.82;96.37;98375.94;12200472;19;20010;-84
2023/01/16 00:26:52;;;;;;;1.42;0.60;;;;;;;5.79;96.69;98370.97;12175280;19;20026;-82
2023/01/16 00:30:54;;;;;;;4.45;0.98;;;;;;;5.70;97.74;98362.38;12196901;19;20010;-82
2023/01/16 00:34:56;;;;;;;3.80;1.10;;;;;;;5.60;97.57;98345.88;12194825;19;20010;-82
2023/01/16 00:38:57;;;;;;;4.13;0.77;;;;;;;5.53;98.21;98333.47;12176985;19;20123;-82
2023/01/16 00:42:59;;;;;;;8.60;1.35;;;;;;;5.35;98.19;98329.94;12195718;19;20318;-82
2023/01/16 00:47:01;;;;;;;2.72;1.27;;;;;;;5.32;98.84;98316.78;12193205;19;20086;-82
2023/01/16 00:51:03;;;;;;;6.28;1.40;;;;;;;5.25;99.24;98308.78;12176061;19;20073;-82
2023/01/16 00:55:05;;;;;;;2.15;0.88;;;;;;;5.17;99.64;98297.47;12195200;19;20471;-82
2023/01/16 00:59:07;;;;;;;1.17;0.70;;;;;;;5.15;100.00;98299.66;12197383;19;20007;-81
2023/01/16 01:03:09;;;;;;;2.60;1.15;;;;;;;5.19;99.61;98298.06;12189759;19;20717;-83
2023/01/16 01:07:11;;;;;;;6.93;1.00;;;;;;;5.18;99.56;98291.78;12213656;19;20031;-83
2023/01/16 01:11:17;;;;;;;5.70;1.13;;;;;;;5.25;99.58;98289.66;12209226;19;20268;-82
2023/01/16 01:15:19;;;;;;;3.20;0.75;;;;;;;5.22;99.68;98286.63;12181458;19;20019;-83
2023/01/16 01:19:20;;;;;;;1.65;0.73;;;;;;;5.18;99.11;98277.28;12201758;19;20003;-83
2023/01/16 01:23:23;;;;;;;3.58;0.80;;;;;;;5.17;98.75;98275.63;12200683;19;20011;-86
2023/01/16 01:27:25;;;;;;;;;;;;;;;5.29;98.73;98273.59;12178735;19;20006;-84
2023/01/16 01:31:26;;;;;;;6.00;1.05;;;;;;;5.37;97.12;98256.78;12194346;19;19910;-84
2023/01/16 01:35:28;;;;;;;2.58;0.90;;;;;;;5.40;95.26;98256.28;12199107;19;20444;-84
2023/01/16 01:39:30;;;;;;;3.63;0.70;;;;;;;5.58;95.43;98254.28;12181380;19;20002;-84
2023/01/16 01:43:46;;;;;;;3.77;0.73;;;;;;;5.58;94.25;98236.00;12203833;19;20007;-84
2023/01/16 01:47:54;;;;;;;5.07;0.70;;;;;;;5.68;94.95;98225.19;12183207;19;20030;-84
2023/01/16 01:52:01;;;;;;;2.75;0.93;;;;;;;5.62;94.43;98209.81;12220691;19;20029;-84
2023/01/16 01:56:27;;;;;;;3.90;0.90;;;;;;;5.49;96.01;98197.38;12267924;19;20019;-83
2023/01/16 02:00:29;;;;;;;4.57;0.80;;;;;;;5.43;96.77;98203.84;12238221;19;20606;-84
2023/01/16 02:04:35;;;;;;;1.02;0.63;;;;;;;5.35;96.82;98187.91;12221626;19;20018;-83
2023/01/16 02:08:37;;;;;;;3.95;1.10;;;;;;;5.37;97.27;98176.75;12193366;19;20010;-85
2023/01/16 02:12:39;;;;;;;2.08;0.65;;;;;;;5.43;96.80;98160.16;12210835;19;20030;-84
2023/01/16 02:21:19;;;;;;;4.20;0.85;;;;;;;5.48;95.54;98153.94;12188659;19;20006;-83
2023/01/16 02:25:49;;;;;;;2.92;0.70;;;;;;;5.44;96.33;98142.69;12208908;19;20011;-83
2023/01/16 02:30:17;;;;;;;3.58;0.70;;;;;;;5.36;95.51;98134.13;12193471;19;20736;-84
2023/01/16 02:34:57;;;;;;;2.78;0.77;;;;;;;5.22;95.65;98120.03;12208835;19;20002;-85
2023/01/16 02:39:18;;;;;;;4.00;0.75;;;;;;;5.23;95.57;98108.88;12207952;19;20007;-85
2023/01/16 02:43:55;;;;;;;2.55;1.20;;;;;;;5.25;94.71;98092.22;12273580;19;20003;-88
2023/01/16 02:48:02;;;;;;;5.63;0.95;;;;;;;5.31;94.44;98088.47;12242929;19;20007;-84
2023/01/16 02:52:19;;;;;;;2.45;0.60;;;;;;;5.30;93.94;98072.34;12215642;19;20010;-85
2023/01/16 02:56:32;;;;;;;3.45;0.93;;;;;;;5.22;94.16;98057.25;12219570;19;20606;-86
2023/01/16 03:00:35;;;;;;;5.32;0.85;;;;;;;5.24;93.96;98044.97;12196057;19;20002;-84
2023/01/16 03:04:50;;;;;;;4.15;0.80;;;;;;;5.34;92.55;98041.50;12211072;19;20014;-84
2023/01/16 03:09:10;;;;;;;6.10;0.60;;;;;;;5.46;91.99;98028.50;12191070;19;20032;-84
2023/01/16 03:13:32;;;;;;;4.60;0.90;;;;;;;5.54;91.67;98013.56;12207813;19;20007;-83
2023/01/16 03:17:39;;;;;;;3.83;1.10;;;;;;;5.54;90.63;98002.63;12193590;19;20047;-84
2023/01/16 03:21:53;;;;;;;4.68;1.65;;;;;;;5.59;90.06;97990.91;12214746;19;19999;-84
2023/01/16 03:26:02;;;;;;;3.03;1.00;;;;;;;5.62;89.70;97988.50;12209204;19;20010;-84
2023/01/16 03:30:35;;;;;;;2.72;0.85;;;;;;;5.61;88.76;97981.34;12187774;19;20038;-84
2023/01/16 03:34:57;;;;;;;1.42;1.10;;;;;;;5.50;89.15;97965.97;12205853;19;20007;-84
2023/01/16 03:39:01;;;;;;;4.50;0.90;;;;;;;5.38;89.51;97960.69;12186249;19;20022;-86
2023/01/16 03:43:10;;;;;;;3.20;0.93;;;;;;;5.35;89.80;97961.22;12210984;19;20007;-84
2023/01/16 03:47:18;;;;;;;3.17;0.95;;;;;;;5.23;90.37;97949.66;12208322;19;20006;-84
2023/01/16 03:51:25;;;;;;;3.70;0.95;;;;;;;5.10;90.50;97936.44;12184309;19;20090;-84
2023/01/16 03:55:34;;;;;;;1.58;0.60;;;;;;;4.96;91.34;97923.22;12209904;19;19998;-83
2023/01/16 03:59:37;;;;;;;4.20;0.95;;;;;;;4.85;91.61;97920.66;12186273;19;20006;-84
2023/01/16 04:03:53;;;;;;;3.50;0.70;;;;;;;4.80;92.09;97892.25;12206477;19;20033;-84
2023/01/16 04:08:03;;;;;;;1.65;0.68;;;;;;;4.76;92.20;97885.66;12207411;19;20034;-84
2023/01/16 04:12:06;;;;;;;1.27;0.68;;;;;;;4.74;92.03;97873.38;12182149;19;20002;-84
2023/01/16 04:16:13;;;;;;;1.60;0.70;;;;;;;4.74;92.13;97873.38;12201772;19;20747;-86
2023/01/16 04:20:16;;;;;;;3.03;0.82;;;;;;;4.84;92.63;97865.25;12200814;19;20449;-83
2023/01/16 04:24:21;;;;;;;2.53;0.77;;;;;;;4.80;92.86;97854.03;12178928;19;20003;-85
2023/01/16 04:28:22;;;;;;;2.85;0.80;;;;;;;4.81;92.15;97846.66;12204475;19;20468;-86
2023/01/16 04:32:24;;;;;;;7.70;1.25;;;;;;;4.86;91.87;97841.25;12202633;19;21918;-85
2023/01/16 04:36:27;;;;;;;5.63;1.02;;;;;;;4.85;91.90;97823.25;12175048;19;20527;-83
2023/01/16 04:40:28;;;;;;;2.35;0.80;;;;;;;4.92;91.56;97818.38;12200726;19;20002;-83
2023/01/16 04:44:33;;;;;;;2.00;0.50;;;;;;;5.02;91.08;97801.25;12198984;19;20055;-84
2023/01/16 04:48:34;;;;;;;9.75;1.60;;;;;;;5.09;90.11;97784.66;12177847;19;20058;-86
2023/01/16 04:52:36;;;;;;;3.65;0.68;;;;;;;5.16;90.08;97774.31;12197530;19;20041;-85
2023/01/16 04:56:38;;;;;;;4.80;1.00;;;;;;;5.18;89.51;97758.50;12178164;19;20010;-86
2023/01/16 05:00:40;;;;;;;3.03;0.63;;;;;;;5.21;90.18;97757.97;12202160;19;20007;-84
2023/01/16 05:04:41;;;;;;;3.05;0.70;;;;;;;5.10;90.45;97742.63;12195649;19;20010;-84
2023/01/16 05:08:43;;;;;;;0.90;0.57;;;;;;;5.09;91.09;97727.34;12178086;19;20014;-83
2023/01/16 05:12:45;;;;;;;5.20;1.30;;;;;;;5.08;91.09;97726.47;12197468;19;20002;-83
2023/01/16 05:16:46;;;;;;;2.35;1.10;;;;;;;5.19;89.93;97711.81;12197631;19;20631;-86
2023/01/16 05:20:48;;;;;;;1.27;0.47;;;;;;;5.24;90.05;97700.09;12175944;19;20682;-84
2023/01/16 05:24:49;;;;;;;4.05;0.70;;;;;;;5.21;88.91;97682.34;12196331;19;19999;-83
2023/01/16 05:28:51;;;;;;;2.78;0.40;;;;;;;5.19;89.31;97667.31;12199123;19;20010;-83
2023/01/16 05:32:53;;;;;;;4.43;0.73;;;;;;;5.14;89.46;97665.34;12180375;19;20010;-82
2023/01/16 05:36:54;;;;;;;2.67;0.80;;;;;;;5.16;89.84;97651.47;12206109;19;20030;-84
2023/01/16 05:40:56;;;;;;;0.93;0.63;;;;;;;5.14;90.21;97634.50;12209608;19;20007;-83
2023/01/16 05:44:58;;;;;;;0.80;0.50;;;;;;;5.09;90.80;97618.13;12191071;19;20896;-83
2023/01/16 05:49:00;;;;;;;3.38;0.85;;;;;;;5.03;90.68;97609.91;12209082;19;20009;-84
2023/01/16 05:53:02;;;;;;;1.83;0.57;;;;;;;5.05;90.82;97600.63;12206660;19;20002;-83
2023/01/16 05:57:03;;;;;;;3.17;0.60;;;;;;;5.06;89.51;97592.19;12185255;19;21428;-85
2023/01/16 06:01:05;;;;;;;4.43;0.77;;;;;;;5.22;89.77;97582.13;12206612;19;20016;-84
2023/01/16 06:05:08;;;;;;;1.55;0.43;;;;;;;5.20;89.36;97576.09;12206695;19;20074;-84
2023/01/16 06:09:09;;;;;;;4.70;0.80;;;;;;;5.22;89.55;97558.38;12186647;19;20010;-84
2023/01/16 06:13:11;;;;;;;1.88;0.57;;;;;;;5.21;89.01;97551.28;12203871;19;20014;-83
2023/01/16 06:17:14;;;;;;;3.00;0.60;;;;;;;5.19;88.99;97531.59;12210387;19;20007;-83
2023/01/16 06:21:16;;;;;;;2.70;0.50;;;;;;;5.16;88.66;97525.88;12183457;19;20007;-84
2023/01/16 06:25:17;;;;;;;2.42;0.70;;;;;;;5.20;88.93;97518.75;12209294;19;20014;-81
2023/01/16 06:29:20;;;;;;;2.15;0.55;;;;;;;5.33;89.38;97515.53;12207111;19;20005;-83
2023/01/16 06:33:23;;;;;;;0.88;0.50;;;;;;;5.43;88.96;97506.50;12181398;19;20414;-86
2023/01/16 06:37:29;;;;;;;2.15;0.60;;;;;;;5.45;88.57;97490.66;12202771;19;20003;-85
2023/01/16 06:41:30;;;;;;;6.03;1.00;;;;;;;5.42;89.22;97475.66;12205615;19;20010;-84
2023/01/16 06:45:35;;;;;;;3.13;0.50;;;;;;;5.37;89.86;97461.97;12179995;19;20007;-85
2023/01/16 06:49:37;;;;;;;5.70;0.70;;;;;;;5.28;90.31;97463.63;12206327;19;20014;-84
2023/01/16 06:53:39;;;;;;;2.50;0.55;;;;;;;5.23;90.68;97447.22;12182480;19;20031;-83
2023/01/16 06:57:40;;;;;;;4.75;1.20;;;;;;;5.21;90.16;97435.78;12203650;19;20011;-84
2023/01/16 07:01:42;;;;;;;1.35;0.57;;;;;;;5.18;90.30;97425.41;12205744;19;20006;-83
2023/01/16 07:05:45;;;;;;;3.00;0.50;;;;;;;5.15;89.98;97421.31;12183656;19;20010;-84
2023/01/16 07:09:49;;;;;;;4.97;0.63;;;;;;;5.13;89.57;97418.03;12206172;19;20082;-83
2023/01/16 07:22:34;;;;;;;1.13;0.40;;;;;;;5.17;89.65;97391.81;12204712;19;20002;-83
2023/01/16 07:22:43;;;;;;;2.15;0.65;;;;;;;5.24;89.13;97380.63;12205434;19;20010;-83
2023/01/16 07:26:48;;;;;;;1.65;0.63;;;;;;;5.26;88.64;97375.69;12183740;19;20028;-83
2023/01/16 07:30:50;;;;;;;3.10;0.60;;;;;;;5.33;88.96;97362.59;12209668;19;20011;-83
2023/01/16 07:34:52;;;;;;;2.55;0.63;;;;;;;5.36;88.67;97348.38;12213996;19;20463;-83
2023/01/16 07:38:54;;;;;;;1.90;0.75;;;;;;;5.42;88.57;97341.00;12226210;19;19992;-83
2023/01/16 07:42:56;;;;;;;2.97;0.90;;;;;;;5.41;88.51;97322.97;12269456;19;20002;-84
2023/01/16 07:46:58;;;;;;;3.75;0.70;;;;;;;5.46;87.08;97321.03;12216069;19;20488;-84
2023/01/16 07:51:00;;;;;;;3.40;0.75;;;;;;;5.58;85.80;97307.06;12191582;19;20063;-84
2023/01/16 07:55:02;;;;;;;2.63;0.70;;;;;;;5.63;83.92;97308.97;12213813;19;20006;-86
2023/01/16 07:59:11;;;;;;;1.13;0.50;;;;;;;5.79;84.39;97302.34;12223773;19;20031;-84
2023/01/16 08:03:15;;;;;;;1.50;0.50;;;;;;;5.90;84.71;97300.38;12253612;19;20000;-88
2023/01/16 08:07:19;;;;;;;1.48;0.90;;;;;;;5.95;82.78;97284.00;12262360;19;20049;-87
2023/01/16 08:11:38;;;;;;;0.98;0.40;;;;;;;6.03;84.19;97277.09;12220119;19;20010;-84
2023/01/16 08:15:40;;;;;;;3.15;0.57;;;;;;;6.10;84.29;97259.31;12188386;19;20027;-84
2023/01/16 08:19:42;;;;;;;3.25;0.57;;;;;;;6.12;82.96;97261.75;12207731;19;20063;-86
2023/01/16 08:23:45;;;;;;;1.27;0.50;;;;;;;6.18;82.73;97249.66;12182891;19;20006;-84
2023/01/16 08:27:53;;;;;;;2.70;0.57;;;;;;;6.25;83.18;97243.91;12183534;19;20013;-84
2023/01/16 08:31:59;;;;;;;1.83;0.40;;;;;;;6.30;82.95;97219.22;12207380;19;20007;-85
2023/01/16 08:36:06;;;;;;;1.73;0.63;;;;;;;6.30;81.08;97202.81;12184542;19;20007;-84
2023/01/16 08:40:10;;;;;;;4.93;0.47;;;;;;;6.30;79.30;97198.16;12207152;19;20010;-85
2023/01/16 08:52:56;;;;;;;2.80;0.68;;;;;;;6.62;77.20;97150.28;12205290;19;20011;-84
2023/01/16 08:56:58;;;;;;;0.88;0.55;;;;;;;6.76;76.54;97137.56;12187692;19;20010;-85
2023/01/16 09:01:00;;;;;;;1.05;0.50;;;;;;;6.87;76.10;97138.25;12211176;19;20003;-84
2023/01/16 09:05:04;;;;;;;3.05;0.50;;;;;;;6.84;75.03;97145.13;12211279;19;20003;-85
2023/01/16 09:09:07;;;;;;;2.00;0.70;;;;;;;6.78;74.37;97140.81;12182017;19;20338;-84
2023/01/16 09:17:33;;;;;;;4.32;0.98;;;;;;;6.64;72.96;97128.94;12207205;19;20010;-85
2023/01/16 09:21:36;;;;;;;3.60;0.93;;;;;;;6.82;74.20;97139.13;12185581;19;20017;-85
2023/01/16 09:25:40;;;;;;;3.83;0.90;;;;;;;6.82;73.58;97149.25;12200767;19;20006;-82
2023/01/16 09:29:43;;;;;;;;;;;;;;;6.85;73.80;97146.75;12181940;19;21201;-84
2023/01/16 09:33:47;;;;;;;0.55;0.47;;;;;;;6.83;73.89;97143.47;12203609;19;19915;-84
2023/01/16 09:37:50;;;;;;;1.08;0.38;;;;;;;6.90;73.80;97136.84;12207148;19;20007;-85
2023/01/16 09:46:28;;;;;;;4.20;0.80;;;;;;;6.69;73.67;97128.03;12212477;19;20011;-86
2023/01/16 09:51:07;;;;;;;1.05;0.43;;;;;;;6.62;74.53;97112.78;12218183;19;20003;-85
2023/01/16 10:00:08;;;;;;;4.78;0.60;;;;;;;6.62;75.65;97106.50;12181061;19;20007;-85
2023/01/16 10:04:24;;;;;;;2.13;0.50;;;;;;;6.65;76.56;97100.44;12207893;19;20341;-84
2023/01/16 10:09:09;;;;;;;1.43;0.50;;;;;;;6.57;77.45;97090.97;12205981;19;20002;-85
2023/01/16 10:13:30;;;;;;;1.27;0.40;;;;;;;6.51;77.69;97070.22;12099600;19;2004522;-84
2023/01/16 10:17:54;;;;;;;1.15;0.52;;;;;;;6.49;78.23;97090.78;12199134;19;20020;-84
2023/01/16 10:22:13;;;;;;;1.02;0.40;;;;;;;6.43;79.59;97062.66;12190500;19;20464;-84
2023/01/16 10:26:27;;;;;;;1.75;0.50;;;;;;;6.39;82.35;97059.72;12212173;19;20007;-84
2023/01/16 10:30:44;;;;;;;1.90;0.73;;;;;;;6.35;84.02;97044.97;12191486;19;20010;-84
2023/01/16 10:35:03;;;;;;;1.25;0.40;;;;;;;6.20;86.28;97058.81;12207222;19;20007;-85
2023/01/16 10:52:37;;;;;;;1.90;0.40;;;;;;;6.09;96.29;97033.47;12210217;19;20006;-84
2023/01/16 10:56:48;;;;;;;1.58;0.60;;;;;;;6.02;97.38;97024.00;12197138;19;20009;-87
2023/01/16 11:00:55;;;;;;;1.45;0.75;;;;;;;6.11;97.45;97014.88;12227277;19;20017;-86
2023/01/16 11:05:01;;;;;;;1.05;0.52;;;;;;;6.09;98.80;97008.06;12210246;19;20031;-88
2023/01/16 11:09:31;;;;;;;4.47;1.00;;;;;;;5.92;100.00;96992.09;12191351;19;20068;-88
2023/01/16 11:18:52;;;;;;;1.67;0.70;;;;;;;6.16;99.63;96959.34;12187892;19;20010;-86
2023/01/16 11:22:58;;;;;;;2.45;0.90;;;;;;;6.19;98.77;96952.44;12209928;19;20010;-83
2023/01/16 11:27:01;;;;;;;2.50;0.93;;;;;;;6.30;98.65;96938.34;12188256;19;20018;-82
2023/01/16 11:31:19;;;;;;;2.20;0.80;;;;;;;6.36;98.03;96915.31;12209964;19;20038;-82
2023/01/16 11:35:30;;;;;;;1.67;0.75;;;;;;;6.49;98.33;96902.03;12203996;19;20007;-82
2023/01/16 11:39:35;;;;;;;2.00;0.70;;;;;;;6.56;97.83;96880.59;12183455;19;20010;-82
2023/01/16 11:48:25;;;;;;;1.58;0.73;;;;;;;6.74;94.86;96866.09;12183499;19;20010;-83
2023/01/16 11:52:36;;;;;;;2.72;0.70;;;;;;;6.75;94.91;96851.31;12205595;19;20376;-84
2023/01/16 11:57:15;;;;;;;3.38;0.90;;;;;;;6.95;93.70;96816.50;12185651;19;20456;-83
2023/01/16 12:02:15;;;;;;;5.18;0.60;;;;;;;7.04;91.55;96801.00;12208982;19;20086;-83
2023/01/16 12:06:05;;;;;;;1.13;0.65;;;;;;;7.31;91.84;96792.03;12183845;19;20480;-82
2023/01/16 12:10:38;;;;;;;3.00;0.80;;;;;;;7.66;89.58;96779.56;12207553;19;20081;-82
2023/01/16 12:14:53;;;;;;;4.90;1.20;;;;;;;7.97;88.63;96773.44;12178974;19;20014;-82
2023/01/16 12:19:10;;;;;;;1.75;0.60;;;;;;;8.03;83.51;96755.78;12205725;19;20441;-83
2023/01/16 12:23:25;;;;;;;0.57;0.40;;;;;;;8.11;83.25;96732.28;12207212;19;20002;-83
2023/01/16 12:28:10;;;;;;;1.70;0.63;;;;;;;8.13;81.92;96711.66;12186471;19;20002;-82
2023/01/16 12:32:28;;;;;;;0.70;0.40;;;;;;;8.06;81.23;96697.59;12212717;19;20030;-82
2023/01/16 12:36:39;;;;;;;1.45;0.50;;;;;;;8.10;80.98;96695.81;12194528;19;20006;-81
2023/01/16 12:43:17;;;;;;;0.75;0.50;;;;;;;8.39;80.37;96679.00;12261544;19;20050;-81
2023/01/16 12:45:41;;;;;;;1.40;0.40;;;;;;;8.54;78.18;96661.31;12197774;19;20010;-83
2023/01/16 12:50:06;;;;;;;0.57;0.40;;;;;;;8.91;74.63;96648.28;12213764;19;20010;-83
2023/01/16 12:54:15;;;;;;;0.90;0.50;;;;;;;9.62;71.81;96630.88;12187321;19;20010;-82
2023/01/16 12:58:23;;;;;;;1.67;0.60;;;;;;;9.88;65.75;96623.47;12204429;19;20070;-83
2023/01/16 13:02:50;;;;;;;1.02;0.50;;;;;;;10.28;65.79;96606.78;12206308;19;20006;-82
2023/01/16 13:06:59;;;;;;;1.50;0.60;;;;;;;10.04;64.02;96583.31;12182722;19;20003;-82
2023/01/16 13:15:37;;;;;;;1.23;0.40;;;;;;;9.64;66.95;96579.09;12181001;19;20013;-84
2023/01/16 13:19:43;;;;;;;1.80;0.57;;;;;;;9.35;64.51;96564.06;12204068;19;20030;-82
2023/01/16 13:23:54;;;;;;;1.25;0.40;;;;;;;9.13;66.56;96562.22;12189618;19;20519;-80
2023/01/16 13:28:02;;;;;;;0.73;0.40;;;;;;;8.90;65.97;96559.59;12209987;19;20003;-84
2023/01/16 13:32:30;;;;;;;0.65;0.40;;;;;;;8.74;67.50;96552.09;12205908;19;20002;-83
2023/01/16 13:36:51;;;;;;;1.13;0.57;;;;;;;8.64;66.84;96542.22;12190578;19;20003;-83
2023/01/16 13:41:19;;;;;;;1.02;0.50;;;;;;;8.47;68.66;96537.47;12205870;19;20010;-81
2023/01/16 13:45:50;;;;;;;0.50;0.40;;;;;;;8.21;68.27;96524.41;12182374;19;20010;-82
2023/01/16 13:49:54;;;;;;;0.40;0.30;;;;;;;8.06;70.20;96526.72;12208311;19;20009;-84
2023/01/16 13:54:05;;;;;;;0.47;0.40;;;;;;;8.04;71.76;96518.03;12189756;19;20445;-81
2023/01/16 13:58:18;;;;;;;1.80;0.60;;;;;;;7.93;74.13;96509.25;12235270;19;20074;-82
2023/01/16 14:02:39;;;;;;;2.17;0.50;;;;;;;7.79;75.76;96508.50;12250961;19;20003;-81
2023/01/16 14:06:48;;;;;;;0.82;0.40;;;;;;;7.70;77.86;96512.00;12251651;19;20034;-83
2023/01/16 14:10:59;;;;;;;1.52;0.43;;;;;;;7.52;80.80;96491.91;12248754;19;20007;-81
2023/01/16 14:20:00;;;;;;;0.88;0.40;;;;;;;7.63;81.82;96443.13;12227838;19;20329;-82
2023/01/16 14:24:18;;;;;;;0.65;0.38;;;;;;;7.43;82.46;96417.03;12196887;19;20054;-82
2023/01/16 14:28:20;;;;;;;0.77;0.40;;;;;;;7.36;82.96;96402.19;12215722;19;20007;-81
2023/01/16 14:32:27;;;;;;;1.02;0.40;;;;;;;7.24;82.76;96398.06;12216693;19;20015;-81
2023/01/16 14:36:33;;;;;;;0.85;0.30;;;;;;;7.19;82.01;96383.69;12196849;19;20007;-82
2023/01/16 14:58:48;;;;;;;0.30;0.30;;;;;;;7.31;79.71;96338.19;12216075;19;20037;-82
2023/01/16 15:03:09;;;;;;;2.38;0.40;;;;;;;7.21;79.14;96321.22;12194769;19;20006;-83
2023/01/16 15:07:14;;;;;;;1.65;0.47;;;;;;;7.20;79.11;96309.47;12210989;19;20527;-81
2023/01/16 15:11:41;;;;;;;2.25;0.77;;;;;;;7.32;79.52;96306.16;12210430;19;21384;-82
2023/01/16 15:15:51;;;;;;;1.42;0.60;;;;;;;7.33;79.35;96317.91;12189382;19;20456;-82
2023/01/16 15:24:48;;;;;;;0.82;0.50;;;;;;;7.28;84.22;96316.91;12188774;19;20111;-82
2023/01/16 15:29:09;;;;;;;1.58;0.70;;;;;;;7.11;87.90;96316.81;12214192;19;20030;-83
2023/01/16 15:37:52;;;;;;;0.50;0.30;;;;;;;6.64;99.15;96331.94;12215846;19;20007;-83
2023/01/16 15:46:35;;;;;;;0.98;0.47;;;;;;;6.36;100.00;96313.66;12212513;19;20006;-81
2023/01/16 15:50:57;;;;;;;0.75;0.47;;;;;;;6.09;100.00;96300.06;12207572;19;20006;-83
2023/01/16 15:55:15;;;;;;;1.35;0.90;;;;;;;6.11;100.00;96300.56;12189503;19;20082;-85
2023/01/16 15:59:21;;;;;;;0.40;0.35;;;;;;;6.00;100.00;96310.91;12212363;19;20006;-84
2023/01/16 16:03:40;;;;;;;2.05;0.90;;;;;;;5.99;100.00;96309.28;12194638;19;20010;-85
2023/01/16 16:07:46;;;;;;;1.88;1.02;;;;;;;5.93;100.00;96299.59;12215462;19;20013;-82
2023/01/16 16:11:54;;;;;;;1.75;0.57;;;;;;;5.86;100.00;96315.53;12189060;19;20031;-83
2023/01/16 16:20:34;;;;;;;0.73;0.35;;;;;;;5.75;100.00;96305.94;12208733;19;20002;-86
2023/01/16 16:24:38;;;;;;;1.17;0.43;;;;;;;5.64;100.00;96291.69;12179587;19;20010;-83
2023/01/16 16:28:40;;;;;;;;;;;;;;;5.62;100.00;96289.28;12206882;19;20365;-83
2023/01/16 16:32:42;;;;;;;1.58;0.65;;;;;;;5.60;100.00;96287.94;12210221;19;19942;-86
2023/01/16 16:36:48;;;;;;;0.75;0.50;;;;;;;5.57;100.00;96280.38;12178798;19;20010;-86
2023/01/16 16:41:23;;;;;;;0.70;0.40;;;;;;;5.54;100.00;96297.34;12199132;19;20377;-85
2023/01/16 16:45:33;;;;;;;0.70;0.60;;;;;;;5.51;100.00;96279.66;12170523;19;20015;-83
2023/01/16 16:49:35;;;;;;;0.50;0.40;;;;;;;5.51;100.00;96273.38;12197832;19;20010;-82
2023/01/16 16:53:45;;;;;;;1.10;0.40;;;;;;;5.49;100.00;96274.47;12201136;19;20102;-82
2023/01/16 16:57:53;;;;;;;0.63;0.30;;;;;;;5.46;100.00;96279.75;12180889;19;20006;-82
2023/01/16 17:02:03;;;;;;;1.30;0.40;;;;;;;5.47;100.00;96284.09;12200333;19;20022;-83
2023/01/16 17:06:15;;;;;;;1.00;0.57;;;;;;;5.42;100.00;96276.81;12178616;19;20003;-81
2023/01/16 17:10:22;;;;;;;0.60;0.40;;;;;;;5.44;100.00;96288.25;12198249;19;20049;-82
2023/01/16 17:14:24;;;;;;;1.30;0.60;;;;;;;5.47;100.00;96295.00;12198896;19;20498;-83
2023/01/16 17:18:27;;;;;;;1.40;0.57;;;;;;;5.46;100.00;96286.00;12180344;19;20003;-83
2023/01/16 17:22:29;;;;;;;1.45;0.68;;;;;;;5.44;100.00;96296.44;12201435;19;20027;-85
2023/01/16 17:26:34;;;;;;;0.55;0.55;;;;;;;5.47;100.00;96298.56;12201585;19;20472;-82
2023/01/16 17:30:36;;;;;;;1.20;0.80;;;;;;;5.39;100.00;96312.13;12183899;19;20007;-82
2023/01/16 17:34:41;;;;;;;2.15;0.90;;;;;;;5.43;100.00;96291.28;12208142;19;20014;-80
2023/01/16 17:38:45;;;;;;;2.53;0.70;;;;;;;5.47;100.00;96298.56;12252389;19;20007;-80
2023/01/16 17:47:11;;;;;;;1.08;0.70;;;;;;;5.52;100.00;96305.84;12197713;19;20003;-82
2023/01/16 17:51:13;;;;;;;0.77;0.50;;;;;;;5.47;100.00;96312.22;12181587;19;20027;-81
2023/01/16 17:59:36;;;;;;;3.20;0.60;;;;;;;5.52;100.00;96327.69;12201560;19;20074;-82
2023/01/16 18:03:42;;;;;;;1.65;0.57;;;;;;;5.51;100.00;96334.28;12176894;19;20019;-81
2023/01/16 18:07:44;;;;;;;0.80;0.50;;;;;;;5.45;100.00;96344.47;12197434;19;20098;-82
2023/01/16 18:20:38;;;;;;;0.70;0.50;;;;;;;5.39;100.00;96347.59;12205215;19;20006;-83
2023/01/16 18:24:42;;;;;;;1.98;0.73;;;;;;;5.45;100.00;96347.22;12189376;19;20384;-82
2023/01/16 18:28:46;;;;;;;1.52;0.90;;;;;;;5.47;100.00;96357.81;12223121;19;20337;-82
2023/01/16 18:32:49;;;;;;;;;;;;;;;5.41;100.00;96339.91;12199961;19;20006;-82
2023/01/16 18:36:51;;;;;;;1.35;0.40;;;;;;;5.42;100.00;96357.94;12213869;19;19990;-83
2023/01/16 19:02:51;;;;;;;0.60;0.55;;;;;;;5.38;100.00;96387.72;12219304;19;20002;-81
2023/01/16 19:07:00;;;;;;;0.43;0.40;;;;;;;5.29;100.00;96384.06;12187604;19;20011;-84
2023/01/16 19:11:03;;;;;;;2.42;0.60;;;;;;;5.28;100.00;96409.75;12222080;19;20006;-82
2023/01/16 19:15:06;;;;;;;1.07;0.50;;;;;;;5.18;100.00;96412.66;12188034;19;20006;-83
2023/01/16 19:19:11;;;;;;;0.65;0.30;;;;;;;5.01;100.00;96422.19;12221046;19;20015;-81
2023/01/16 19:23:12;;;;;;;0.70;0.50;;;;;;;4.99;100.00;96423.59;12215378;19;20068;-85
2023/01/16 19:27:16;;;;;;;1.30;0.68;;;;;;;4.89;100.00;96432.75;12193962;19;20005;-84
2023/01/16 19:31:18;;;;;;;0.87;0.40;;;;;;;4.86;100.00;96438.81;12210715;19;20361;-85
2023/01/16 19:35:22;;;;;;;0.40;0.30;;;;;;;4.76;100.00;96450.69;12208107;19;20259;-84
2023/01/16 19:39:27;;;;;;;7.72;0.65;;;;;;;4.73;100.00;96451.28;12188882;19;20006;-85
2023/01/16 19:47:53;;;;;;;1.65;0.90;;;;;;;4.77;100.00;96462.41;12183252;19;20023;-83
2023/01/16 19:51:59;;;;;;;1.58;1.20;;;;;;;4.77;100.00;96470.56;12211988;19;20015;-83
2023/01/16 19:56:05;;;;;;;1.23;0.60;;;;;;;4.71;100.00;96485.41;12212732;19;20015;-83
2023/01/16 20:00:11;;;;;;;0.52;0.40;;;;;;;4.71;100.00;96482.66;12195675;19;20018;-85
2023/01/16 20:04:13;;;;;;;2.22;0.82;;;;;;;4.70;100.00;96491.94;12216175;19;20387;-85
2023/01/16 20:08:23;;;;;;;0.75;0.50;;;;;;;4.74;100.00;96493.00;12255388;19;19994;-81
2023/01/16 20:12:27;;;;;;;1.48;0.60;;;;;;;4.76;100.00;96502.50;12248413;19;20050;-81
2023/01/16 20:16:29;;;;;;;0.80;0.60;;;;;;;4.80;100.00;96519.09;12247023;19;20018;-83
2023/01/16 20:20:31;;;;;;;2.05;0.60;;;;;;;4.84;100.00;96500.22;12217644;19;20015;-82
2023/01/16 20:24:34;;;;;;;1.40;0.40;;;;;;;4.72;100.00;96515.09;12188498;19;20003;-82
2023/01/16 20:28:37;;;;;;;1.27;0.82;;;;;;;4.80;100.00;96508.19;12208479;19;20007;-85
2023/01/16 20:32:39;;;;;;;;;;;;;;;4.78;100.00;96511.19;12204843;19;20019;-83
2023/01/16 20:36:40;;;;;;;3.90;0.50;;;;;;;4.77;100.00;96523.22;12172648;19;19911;-84
2023/01/16 20:40:42;;;;;;;1.20;0.73;;;;;;;4.91;100.00;96536.94;12203370;19;20368;-82
2023/01/16 20:49:05;;;;;;;1.38;0.70;;;;;;;5.00;100.00;96548.03;12170647;19;20026;-85
2023/01/16 20:53:07;;;;;;;2.08;0.70;;;;;;;4.88;100.00;96543.00;12198532;19;20037;-82
2023/01/16 20:57:09;;;;;;;2.40;0.82;;;;;;;4.98;100.00;96551.03;12176120;19;20000;-85
2023/01/16 21:01:11;;;;;;;1.35;0.63;;;;;;;5.07;100.00;96550.38;12198056;19;20016;-84
2023/01/16 21:05:16;;;;;;;1.60;0.52;;;;;;;4.96;100.00;96561.41;12195908;19;19998;-83
2023/01/16 21:09:18;;;;;;;3.38;0.68;;;;;;;4.96;100.00;96568.81;12179499;19;20014;-82
2023/01/16 21:22:02;;;;;;;1.70;0.90;;;;;;;5.06;100.00;96574.13;12173287;19;20463;-81
2023/01/16 21:26:04;;;;;;;5.00;1.20;;;;;;;5.08;100.00;96582.81;12194821;19;20002;-83
2023/01/16 21:30:09;;;;;;;2.72;1.00;;;;;;;5.07;100.00;96599.50;12178422;19;20094;-81
2023/01/16 21:34:12;;;;;;;1.80;1.00;;;;;;;5.01;100.00;96594.09;12194217;19;20074;-83
2023/01/16 21:38:14;;;;;;;3.03;1.33;;;;;;;5.02;100.00;96601.19;12196409;19;20456;-83
2023/01/16 21:46:37;;;;;;;2.72;1.30;;;;;;;5.01;100.00;96624.13;12218763;19;20331;-84
2023/01/16 21:50:45;;;;;;;3.77;1.17;;;;;;;4.92;100.00;96623.16;12196738;19;20015;-82
2023/01/16 21:54:53;;;;;;;3.72;1.05;;;;;;;4.86;100.00;96627.03;12175872;19;20465;-81
2023/01/16 21:58:58;;;;;;;2.72;1.27;;;;;;;4.88;100.00;96640.38;12201187;19;20010;-84
2023/01/16 22:02:59;;;;;;;3.63;1.40;;;;;;;4.86;100.00;96651.59;12185670;19;20018;-81
2023/01/16 22:07:01;;;;;;;4.88;1.30;;;;;;;4.86;100.00;96645.34;12196841;19;20006;-84